sensor_id;sensor_type;location;lat;lon;timestamp;pressure;altitude;pressure_sealevel;temperature;humidity
59859;BME280;45734;53.648;9.566;2024-02-23T00:01:39;53406.38;;;-145.06;80.27
59859;BME280;45734;53.648;9.566;2024-02-23T00:06:39;53408.41;;;-145.06;82.30
59859;BME280;45734;53.648;9.566;2024-02-23T00:11:42;53426.63;;;-145.06;82.78
59859;BME280;45734;53.648;9.566;2024-02-23T00:16:44;53418.53;;;-145.06;84.08
59859;BME280;45734;53.648;9.566;2024-02-23T00:21:45;53394.22;;;-145.06;89.76
59859;BME280;45734;53.648;9.566;2024-02-23T00:26:49;53361.81;;;-145.06;98.96
59859;BME280;45734;53.648;9.566;2024-02-23T00:31:51;53367.91;;;-145.06;100.00
59859;BME280;45734;53.648;9.566;2024-02-23T00:36:51;53382.06;;;-145.06;100.00
59859;BME280;45734;53.648;9.566;2024-02-23T00:41:52;53384.09;;;-145.06;100.00
59859;BME280;45734;53.648;9.566;2024-02-23T00:46:52;53394.22;;;-145.06;100.00
59859;BME280;45734;53.648;9.566;2024-02-23T00:51:52;53459.03;;;-145.06;100.00
59859;BME280;45734;53.648;9.566;2024-02-23T00:56:52;53491.44;;;-145.06;97.15
59859;BME280;45734;53.648;9.566;2024-02-23T01:01:54;53509.66;;;-145.06;95.24
59859;BME280;45734;53.648;9.566;2024-02-23T01:06:54;53570.41;;;-145.06;93.43
59859;BME280;45734;53.648;9.566;2024-02-23T01:11:54;53550.16;;;-145.06;95.75
59859;BME280;45734;53.648;9.566;2024-02-23T01:16:55;53535.97;;;-145.06;95.70
59859;BME280;45734;53.648;9.566;2024-02-23T01:21:55;53540.03;;;-145.06;97.46
59859;BME280;45734;53.648;9.566;2024-02-23T01:26:59;53556.22;;;-145.06;96.51
59859;BME280;45734;53.648;9.566;2024-02-23T01:32:00;53564.31;;;-145.06;97.19
59859;BME280;45734;53.648;9.566;2024-02-23T01:37:00;53578.50;;;-145.06;96.01
59859;BME280;45734;53.648;9.566;2024-02-23T01:42:00;53576.47;;;-145.06;95.65
59859;BME280;45734;53.648;9.566;2024-02-23T01:47:01;53556.22;;;-145.06;95.67
59859;BME280;45734;53.648;9.566;2024-02-23T01:52:02;53558.25;;;-145.06;97.02
59859;BME280;45734;53.648;9.566;2024-02-23T01:57:03;53588.63;;;-145.06;96.79
59859;BME280;45734;53.648;9.566;2024-02-23T02:02:04;53560.28;;;-145.06;97.41
59859;BME280;45734;53.648;9.566;2024-02-23T02:07:05;53570.41;;;-145.06;96.63
59859;BME280;45734;53.648;9.566;2024-02-23T02:12:05;53604.81;;;-145.06;99.21
59859;BME280;45734;53.648;9.566;2024-02-23T02:17:05;53564.31;;;-145.06;100.00
59859;BME280;45734;53.648;9.566;2024-02-23T02:22:06;53558.25;;;-145.06;100.00
59859;BME280;45734;53.648;9.566;2024-02-23T02:27:07;53588.63;;;-145.06;100.00
59859;BME280;45734;53.648;9.566;2024-02-23T02:32:07;53604.81;;;-145.06;100.00
59859;BME280;45734;53.648;9.566;2024-02-23T02:37:09;53633.19;;;-145.06;100.00
59859;BME280;45734;53.648;9.566;2024-02-23T02:42:09;53608.88;;;-145.06;100.00
59859;BME280;45734;53.648;9.566;2024-02-23T02:47:09;53647.34;;;-145.06;100.00
59859;BME280;45734;53.648;9.566;2024-02-23T02:52:10;53614.94;;;-145.06;100.00
59859;BME280;45734;53.648;9.566;2024-02-23T02:57:10;53596.72;;;-145.06;100.00
59859;BME280;45734;53.648;9.566;2024-02-23T03:02:10;53572.44;;;-145.06;100.00
59859;BME280;45734;53.648;9.566;2024-02-23T03:07:10;53602.81;;;-145.06;100.00
59859;BME280;45734;53.648;9.566;2024-02-23T03:12:11;53604.81;;;-145.06;100.00
59859;BME280;45734;53.648;9.566;2024-02-23T03:17:11;53576.47;;;-145.06;100.00
59859;BME280;45734;53.648;9.566;2024-02-23T03:22:11;53598.75;;;-145.06;100.00
59859;BME280;45734;53.648;9.566;2024-02-23T03:27:12;53594.69;;;-145.06;100.00
59859;BME280;45734;53.648;9.566;2024-02-23T03:32:12;53619.00;;;-145.06;100.00
59859;BME280;45734;53.648;9.566;2024-02-23T03:37:12;53633.19;;;-145.06;100.00
59859;BME280;45734;53.648;9.566;2024-02-23T03:42:12;53671.66;;;-145.06;100.00
59859;BME280;45734;53.648;9.566;2024-02-23T03:47:13;53641.28;;;-145.06;100.00
59859;BME280;45734;53.648;9.566;2024-02-23T03:52:13;53641.28;;;-145.06;100.00
59859;BME280;45734;53.648;9.566;2024-02-23T03:57:13;53681.78;;;-145.06;100.00
59859;BME280;45734;53.648;9.566;2024-02-23T04:02:14;53693.94;;;-145.06;100.00
59859;BME280;45734;53.648;9.566;2024-02-23T04:07:14;53702.03;;;-145.06;100.00
59859;BME280;45734;53.648;9.566;2024-02-23T04:12:15;53683.81;;;-145.06;100.00
59859;BME280;45734;53.648;9.566;2024-02-23T04:17:15;53706.06;;;-145.06;100.00
59859;BME280;45734;53.648;9.566;2024-02-23T04:22:15;53669.63;;;-145.06;100.00
59859;BME280;45734;53.648;9.566;2024-02-23T04:27:16;53653.44;;;-145.06;100.00
59859;BME280;45734;53.648;9.566;2024-02-23T04:32:16;53665.56;;;-145.06;100.00
59859;BME280;45734;53.648;9.566;2024-02-23T04:37:16;53675.69;;;-145.06;100.00
59859;BME280;45734;53.648;9.566;2024-02-23T04:42:16;53657.47;;;-145.06;100.00
59859;BME280;45734;53.648;9.566;2024-02-23T04:47:17;53651.41;;;-145.06;100.00
59859;BME280;45734;53.648;9.566;2024-02-23T04:52:17;53653.44;;;-145.06;100.00
59859;BME280;45734;53.648;9.566;2024-02-23T04:57:17;53671.66;;;-145.06;100.00
59859;BME280;45734;53.648;9.566;2024-02-23T05:02:17;53641.28;;;-145.06;100.00
59859;BME280;45734;53.648;9.566;2024-02-23T05:07:18;53645.31;;;-145.06;100.00
59859;BME280;45734;53.648;9.566;2024-02-23T05:12:19;53619.00;;;-145.06;100.00
59859;BME280;45734;53.648;9.566;2024-02-23T05:17:19;53655.44;;;-145.06;100.00
59859;BME280;45734;53.648;9.566;2024-02-23T05:22:19;53665.56;;;-145.06;100.00
59859;BME280;45734;53.648;9.566;2024-02-23T05:27:19;53653.44;;;-145.06;100.00
59859;BME280;45734;53.648;9.566;2024-02-23T05:32:20;53669.63;;;-145.06;100.00
59859;BME280;45734;53.648;9.566;2024-02-23T05:37:20;53665.56;;;-145.06;100.00
59859;BME280;45734;53.648;9.566;2024-02-23T05:42:20;53659.50;;;-145.06;100.00
59859;BME280;45734;53.648;9.566;2024-02-23T05:47:21;53710.13;;;-145.06;100.00
59859;BME280;45734;53.648;9.566;2024-02-23T05:52:21;53681.78;;;-145.06;100.00
59859;BME280;45734;53.648;9.566;2024-02-23T05:57:22;53657.47;;;-145.06;100.00
59859;BME280;45734;53.648;9.566;2024-02-23T06:02:22;53669.63;;;-145.06;100.00
59859;BME280;45734;53.648;9.566;2024-02-23T06:07:23;53675.69;;;-145.06;100.00
59859;BME280;45734;53.648;9.566;2024-02-23T06:12:28;53702.03;;;-145.06;100.00
59859;BME280;45734;53.648;9.566;2024-02-23T06:17:29;53697.97;;;-145.06;100.00
59859;BME280;45734;53.648;9.566;2024-02-23T06:22:29;53722.28;;;-145.06;100.00
59859;BME280;45734;53.648;9.566;2024-02-23T06:27:29;53724.31;;;-145.06;100.00
59859;BME280;45734;53.648;9.566;2024-02-23T06:32:30;53718.22;;;-145.06;100.00
59859;BME280;45734;53.648;9.566;2024-02-23T06:37:30;53700.00;;;-145.06;100.00
59859;BME280;45734;53.648;9.566;2024-02-23T06:42:30;53722.28;;;-145.06;100.00
59859;BME280;45734;53.648;9.566;2024-02-23T06:47:31;53697.97;;;-145.06;100.00
59859;BME280;45734;53.648;9.566;2024-02-23T06:52:31;53718.22;;;-145.06;100.00
59859;BME280;45734;53.648;9.566;2024-02-23T06:57:33;53675.69;;;-145.06;100.00
59859;BME280;45734;53.648;9.566;2024-02-23T07:02:33;53689.88;;;-145.06;100.00
59859;BME280;45734;53.648;9.566;2024-02-23T07:07:36;53669.63;;;-145.06;100.00
59859;BME280;45734;53.648;9.566;2024-02-23T07:12:36;53627.09;;;-145.06;100.00
59859;BME280;45734;53.648;9.566;2024-02-23T07:17:37;53588.63;;;-145.06;100.00
59859;BME280;45734;53.648;9.566;2024-02-23T07:22:37;53497.50;;;-145.06;97.67
59859;BME280;45734;53.648;9.566;2024-02-23T07:27:37;53442.81;;;-145.06;91.60
59859;BME280;45734;53.648;9.566;2024-02-23T07:32:38;53414.47;;;-145.06;86.77
59859;BME280;45734;53.648;9.566;2024-02-23T07:37:38;53422.56;;;-145.06;85.40
59859;BME280;45734;53.648;9.566;2024-02-23T07:42:38;53371.97;;;-145.06;80.95
59859;BME280;45734;53.648;9.566;2024-02-23T07:47:40;53378.03;;;-145.06;78.46
59859;BME280;45734;53.648;9.566;2024-02-23T07:52:40;53359.81;;;-145.06;76.54
59859;BME280;45734;53.648;9.566;2024-02-23T07:57:40;53311.22;;;-145.06;75.38
59859;BME280;45734;53.648;9.566;2024-02-23T08:02:41;53284.88;;;-145.06;72.89
59859;BME280;45734;53.648;9.566;2024-02-23T08:07:41;53323.34;;;-145.06;71.07
59859;BME280;45734;53.648;9.566;2024-02-23T08:12:41;53272.75;;;-145.06;70.18
59859;BME280;45734;53.648;9.566;2024-02-23T08:17:42;53280.84;;;-145.06;70.94
59859;BME280;45734;53.648;9.566;2024-02-23T08:22:42;53325.38;;;-145.06;71.63
59859;BME280;45734;53.648;9.566;2024-02-23T08:27:42;53430.69;;;-145.06;70.42
59859;BME280;45734;53.648;9.566;2024-02-23T08:32:43;53288.94;;;-145.06;70.57
59859;BME280;45734;53.648;9.566;2024-02-23T08:37:43;53495.47;;;-145.06;71.39
59859;BME280;45734;53.648;9.566;2024-02-23T08:42:43;53544.06;;;-145.06;77.71
59859;BME280;45734;53.648;9.566;2024-02-23T08:47:44;53584.56;;;-145.06;79.07
59859;BME280;45734;53.648;9.566;2024-02-23T08:52:45;53519.78;;;-145.06;82.42
59859;BME280;45734;53.648;9.566;2024-02-23T08:57:45;53604.81;;;-145.06;83.95
59859;BME280;45734;53.648;9.566;2024-02-23T09:02:45;53584.56;;;-145.06;85.73
59859;BME280;45734;53.648;9.566;2024-02-23T09:07:45;53576.47;;;-145.06;85.50
59859;BME280;45734;53.648;9.566;2024-02-23T09:12:46;53588.63;;;-145.06;84.85
59859;BME280;45734;53.648;9.566;2024-02-23T09:17:46;53562.31;;;-145.06;82.08
59859;BME280;45734;53.648;9.566;2024-02-23T09:22:46;53592.69;;;-145.06;81.71
59859;BME280;45734;53.648;9.566;2024-02-23T09:27:47;53584.56;;;-145.06;83.39
59859;BME280;45734;53.648;9.566;2024-02-23T09:32:47;53612.94;;;-145.06;81.97
59859;BME280;45734;53.648;9.566;2024-02-23T09:37:47;53576.47;;;-145.06;83.54
59859;BME280;45734;53.648;9.566;2024-02-23T09:43:00;53590.66;;;-145.06;81.70
59859;BME280;45734;53.648;9.566;2024-02-23T09:48:00;53600.78;;;-145.06;80.63
59859;BME280;45734;53.648;9.566;2024-02-23T09:53:04;53562.31;;;-145.06;80.74
59859;BME280;45734;53.648;9.566;2024-02-23T09:58:06;53568.38;;;-145.06;82.16
59859;BME280;45734;53.648;9.566;2024-02-23T10:03:08;53566.34;;;-145.06;81.63
59859;BME280;45734;53.648;9.566;2024-02-23T10:08:09;53584.56;;;-145.06;82.91
59859;BME280;45734;53.648;9.566;2024-02-23T10:13:09;53572.44;;;-145.06;81.21
59859;BME280;45734;53.648;9.566;2024-02-23T10:18:09;53580.53;;;-145.06;82.21
59859;BME280;45734;53.648;9.566;2024-02-23T10:23:10;53588.63;;;-145.06;80.58
59859;BME280;45734;53.648;9.566;2024-02-23T10:28:11;53602.81;;;-145.06;81.42
59859;BME280;45734;53.648;9.566;2024-02-23T10:33:12;53564.31;;;-145.06;83.75
59859;BME280;45734;53.648;9.566;2024-02-23T10:38:14;53621.03;;;-145.06;79.43
59859;BME280;45734;53.648;9.566;2024-02-23T10:43:19;53556.22;;;-145.06;81.04
59859;BME280;45734;53.648;9.566;2024-02-23T10:48:21;53554.19;;;-145.06;79.96
59859;BME280;45734;53.648;9.566;2024-02-23T10:53:22;53596.72;;;-145.06;79.72
59859;BME280;45734;53.648;9.566;2024-02-23T10:58:23;53629.13;;;-145.06;79.69
59859;BME280;45734;53.648;9.566;2024-02-23T11:03:23;53633.19;;;-145.06;79.17
59859;BME280;45734;53.648;9.566;2024-02-23T11:08:28;53600.78;;;-145.06;81.66
59859;BME280;45734;53.648;9.566;2024-02-23T11:13:34;53614.94;;;-145.06;82.47
59859;BME280;45734;53.648;9.566;2024-02-23T11:18:35;53572.44;;;-145.06;82.04
59859;BME280;45734;53.648;9.566;2024-02-23T11:33:54;53564.31;;;-145.06;81.06
59859;BME280;45734;53.648;9.566;2024-02-23T11:38:57;53572.44;;;-145.06;80.48
59859;BME280;45734;53.648;9.566;2024-02-23T11:43:58;53554.19;;;-145.06;82.40
59859;BME280;45734;53.648;9.566;2024-02-23T11:48:58;53574.44;;;-145.06;77.66
59859;BME280;45734;53.648;9.566;2024-02-23T11:54:00;53546.09;;;-145.06;79.14
59859;BME280;45734;53.648;9.566;2024-02-23T11:59:01;53576.47;;;-145.06;77.69
59859;BME280;45734;53.648;9.566;2024-02-23T12:04:01;53568.38;;;-145.06;78.13
59859;BME280;45734;53.648;9.566;2024-02-23T12:09:02;53612.94;;;-145.06;75.06
59859;BME280;45734;53.648;9.566;2024-02-23T12:14:02;53625.06;;;-145.06;76.82
59859;BME280;45734;53.648;9.566;2024-02-23T12:19:08;53621.03;;;-145.06;75.69
59859;BME280;45734;53.648;9.566;2024-02-23T12:24:08;53627.09;;;-145.06;73.55
59859;BME280;45734;53.648;9.566;2024-02-23T12:29:09;53627.09;;;-145.06;74.31
59859;BME280;45734;53.648;9.566;2024-02-23T12:34:11;53580.53;;;-145.06;77.86
59859;BME280;45734;53.648;9.566;2024-02-23T12:39:12;53586.59;;;-145.06;74.62
59859;BME280;45734;53.648;9.566;2024-02-23T12:44:12;53616.97;;;-145.06;72.54
59859;BME280;45734;53.648;9.566;2024-02-23T12:49:12;53588.63;;;-145.06;73.82
59859;BME280;45734;53.648;9.566;2024-02-23T12:54:13;53639.25;;;-145.06;72.05
59859;BME280;45734;53.648;9.566;2024-02-23T12:59:13;53671.66;;;-145.06;72.93
59859;BME280;45734;53.648;9.566;2024-02-23T13:04:13;53633.19;;;-145.06;73.70
59859;BME280;45734;53.648;9.566;2024-02-23T13:09:14;53667.59;;;-145.06;72.87
59859;BME280;45734;53.648;9.566;2024-02-23T13:14:14;53657.47;;;-145.06;75.20
59859;BME280;45734;53.648;9.566;2024-02-23T13:19:15;53675.69;;;-145.06;74.82
59859;BME280;45734;53.648;9.566;2024-02-23T13:24:16;53693.94;;;-145.06;74.75
59859;BME280;45734;53.648;9.566;2024-02-23T13:29:16;53637.22;;;-145.06;77.62
59859;BME280;45734;53.648;9.566;2024-02-23T13:34:16;53708.09;;;-145.06;76.19
59859;BME280;45734;53.648;9.566;2024-02-23T13:39:18;53714.19;;;-145.06;76.24
59859;BME280;45734;53.648;9.566;2024-02-23T13:44:21;53706.06;;;-145.06;73.93
59859;BME280;45734;53.648;9.566;2024-02-23T13:49:21;53691.91;;;-145.06;74.29
59859;BME280;45734;53.648;9.566;2024-02-23T13:54:22;53706.06;;;-145.06;73.81
59859;BME280;45734;53.648;9.566;2024-02-23T13:59:22;53659.50;;;-145.06;74.72
59859;BME280;45734;53.648;9.566;2024-02-23T14:04:22;53649.38;;;-145.06;72.96
59859;BME280;45734;53.648;9.566;2024-02-23T14:09:22;53661.53;;;-145.06;72.31
59859;BME280;45734;53.648;9.566;2024-02-23T14:14:23;53649.38;;;-145.06;71.44
59859;BME280;45734;53.648;9.566;2024-02-23T14:19:23;53635.19;;;-145.06;71.62
59859;BME280;45734;53.648;9.566;2024-02-23T14:24:25;53679.75;;;-145.06;68.83
59859;BME280;45734;53.648;9.566;2024-02-23T14:29:25;53669.63;;;-145.06;69.51
59859;BME280;45734;53.648;9.566;2024-02-23T14:34:25;53665.56;;;-145.06;71.15
59859;BME280;45734;53.648;9.566;2024-02-23T14:39:25;53693.94;;;-145.06;71.28
59859;BME280;45734;53.648;9.566;2024-02-23T14:44:26;53704.06;;;-145.06;71.04
59859;BME280;45734;53.648;9.566;2024-02-23T14:49:26;53693.94;;;-145.06;71.50
59859;BME280;45734;53.648;9.566;2024-02-23T14:54:27;53691.91;;;-145.06;73.25
59859;BME280;45734;53.648;9.566;2024-02-23T14:59:27;53704.06;;;-145.06;72.69
59859;BME280;45734;53.648;9.566;2024-02-23T15:04:27;53748.59;;;-145.06;73.63
59859;BME280;45734;53.648;9.566;2024-02-23T15:09:27;53716.19;;;-145.06;74.62
59859;BME280;45734;53.648;9.566;2024-02-23T15:14:28;53689.88;;;-145.06;75.19
59859;BME280;45734;53.648;9.566;2024-02-23T15:19:28;53744.56;;;-145.06;72.79
59859;BME280;45734;53.648;9.566;2024-02-23T15:24:28;53697.97;;;-145.06;75.37
59859;BME280;45734;53.648;9.566;2024-02-23T15:29:29;53758.72;;;-145.06;73.60
59859;BME280;45734;53.648;9.566;2024-02-23T15:34:29;53736.44;;;-145.06;74.69
59859;BME280;45734;53.648;9.566;2024-02-23T15:39:29;53671.66;;;-145.06;79.14
59859;BME280;45734;53.648;9.566;2024-02-23T15:44:30;53673.69;;;-145.06;89.28
59859;BME280;45734;53.648;9.566;2024-02-23T15:49:30;53627.09;;;-145.06;99.58
59859;BME280;45734;53.648;9.566;2024-02-23T15:54:30;53651.41;;;-145.06;100.00
59859;BME280;45734;53.648;9.566;2024-02-23T15:59:32;53621.03;;;-145.06;100.00
59859;BME280;45734;53.648;9.566;2024-02-23T16:04:32;53625.06;;;-145.06;100.00
59859;BME280;45734;53.648;9.566;2024-02-23T16:09:32;53633.19;;;-145.06;100.00
59859;BME280;45734;53.648;9.566;2024-02-23T16:14:33;53627.09;;;-145.06;100.00
59859;BME280;45734;53.648;9.566;2024-02-23T16:19:33;53645.31;;;-145.06;100.00
59859;BME280;45734;53.648;9.566;2024-02-23T16:24:33;53623.06;;;-145.06;100.00
59859;BME280;45734;53.648;9.566;2024-02-23T16:29:34;53614.94;;;-145.06;100.00
59859;BME280;45734;53.648;9.566;2024-02-23T16:34:34;53651.41;;;-145.06;100.00
59859;BME280;45734;53.648;9.566;2024-02-23T16:39:35;53641.28;;;-145.06;100.00
59859;BME280;45734;53.648;9.566;2024-02-23T16:44:35;53637.22;;;-145.06;100.00
59859;BME280;45734;53.648;9.566;2024-02-23T16:49:36;53645.31;;;-145.06;100.00
59859;BME280;45734;53.648;9.566;2024-02-23T16:54:36;53661.53;;;-145.06;100.00
59859;BME280;45734;53.648;9.566;2024-02-23T16:59:37;53661.53;;;-145.06;100.00
59859;BME280;45734;53.648;9.566;2024-02-23T17:04:37;53700.00;;;-145.06;100.00
59859;BME280;45734;53.648;9.566;2024-02-23T17:09:37;53665.56;;;-145.06;100.00
59859;BME280;45734;53.648;9.566;2024-02-23T17:14:38;53675.69;;;-145.06;100.00
59859;BME280;45734;53.648;9.566;2024-02-23T17:19:39;53649.38;;;-145.06;100.00
59859;BME280;45734;53.648;9.566;2024-02-23T17:24:40;53687.84;;;-145.06;100.00
59859;BME280;45734;53.648;9.566;2024-02-23T17:29:41;53667.59;;;-145.06;100.00
59859;BME280;45734;53.648;9.566;2024-02-23T17:34:41;53641.28;;;-145.06;100.00
59859;BME280;45734;53.648;9.566;2024-02-23T17:39:41;53637.22;;;-145.06;100.00
59859;BME280;45734;53.648;9.566;2024-02-23T17:44:42;53665.56;;;-145.06;100.00
59859;BME280;45734;53.648;9.566;2024-02-23T17:49:42;53669.63;;;-145.06;100.00
59859;BME280;45734;53.648;9.566;2024-02-23T17:54:43;53693.94;;;-145.06;100.00
59859;BME280;45734;53.648;9.566;2024-02-23T17:59:43;53697.97;;;-145.06;100.00
59859;BME280;45734;53.648;9.566;2024-02-23T18:04:43;53685.81;;;-145.06;100.00
59859;BME280;45734;53.648;9.566;2024-02-23T18:09:46;53649.38;;;-145.06;100.00
59859;BME280;45734;53.648;9.566;2024-02-23T18:14:47;53661.53;;;-145.06;100.00
59859;BME280;45734;53.648;9.566;2024-02-23T18:19:47;53655.44;;;-145.06;100.00
59859;BME280;45734;53.648;9.566;2024-02-23T18:24:48;53665.56;;;-145.06;100.00
59859;BME280;45734;53.648;9.566;2024-02-23T18:29:48;53661.53;;;-145.06;100.00
59859;BME280;45734;53.648;9.566;2024-02-23T18:34:48;53655.44;;;-145.06;100.00
59859;BME280;45734;53.648;9.566;2024-02-23T18:39:49;53665.56;;;-145.06;100.00
59859;BME280;45734;53.648;9.566;2024-02-23T18:44:49;53693.94;;;-145.06;100.00
59859;BME280;45734;53.648;9.566;2024-02-23T18:49:50;53683.81;;;-145.06;100.00
59859;BME280;45734;53.648;9.566;2024-02-23T18:54:50;53683.81;;;-145.06;100.00
59859;BME280;45734;53.648;9.566;2024-02-23T18:59:52;53716.19;;;-145.06;100.00
59859;BME280;45734;53.648;9.566;2024-02-23T19:04:52;53681.78;;;-145.06;100.00
59859;BME280;45734;53.648;9.566;2024-02-23T19:09:52;53702.03;;;-145.06;100.00
59859;BME280;45734;53.648;9.566;2024-02-23T19:14:53;53716.19;;;-145.06;100.00
59859;BME280;45734;53.648;9.566;2024-02-23T19:19:53;53708.09;;;-145.06;100.00
59859;BME280;45734;53.648;9.566;2024-02-23T19:24:54;53706.06;;;-145.06;100.00
59859;BME280;45734;53.648;9.566;2024-02-23T19:29:54;53689.88;;;-145.06;100.00
59859;BME280;45734;53.648;9.566;2024-02-23T19:34:55;53716.19;;;-145.06;100.00
59859;BME280;45734;53.648;9.566;2024-02-23T19:39:55;53736.44;;;-145.06;100.00
59859;BME280;45734;53.648;9.566;2024-02-23T19:44:56;53710.13;;;-145.06;100.00
59859;BME280;45734;53.648;9.566;2024-02-23T19:49:56;53748.59;;;-145.06;100.00
59859;BME280;45734;53.648;9.566;2024-02-23T19:54:56;53744.56;;;-145.06;100.00
59859;BME280;45734;53.648;9.566;2024-02-23T19:59:57;53722.28;;;-145.06;100.00
59859;BME280;45734;53.648;9.566;2024-02-23T20:04:58;53736.44;;;-145.06;100.00
59859;BME280;45734;53.648;9.566;2024-02-23T20:09:59;53768.84;;;-145.06;100.00
59859;BME280;45734;53.648;9.566;2024-02-23T20:14:59;53758.72;;;-145.06;100.00
59859;BME280;45734;53.648;9.566;2024-02-23T20:20:03;53732.41;;;-145.06;100.00
59859;BME280;45734;53.648;9.566;2024-02-23T20:25:04;53754.69;;;-145.06;100.00
59859;BME280;45734;53.648;9.566;2024-02-23T20:30:05;53736.44;;;-145.06;100.00
59859;BME280;45734;53.648;9.566;2024-02-23T20:35:06;53744.56;;;-145.06;100.00
59859;BME280;45734;53.648;9.566;2024-02-23T20:40:08;53774.94;;;-145.06;100.00
59859;BME280;45734;53.648;9.566;2024-02-23T20:45:09;53744.56;;;-145.06;100.00
59859;BME280;45734;53.648;9.566;2024-02-23T20:50:09;53754.69;;;-145.06;100.00
59859;BME280;45734;53.648;9.566;2024-02-23T20:55:13;53772.91;;;-145.06;100.00
59859;BME280;45734;53.648;9.566;2024-02-23T21:00:14;53742.53;;;-145.06;100.00
59859;BME280;45734;53.648;9.566;2024-02-23T21:05:14;53766.81;;;-145.06;100.00
59859;BME280;45734;53.648;9.566;2024-02-23T21:10:15;53758.72;;;-145.06;100.00
59859;BME280;45734;53.648;9.566;2024-02-23T21:15:16;53754.69;;;-145.06;100.00
59859;BME280;45734;53.648;9.566;2024-02-23T21:20:16;53770.88;;;-145.06;100.00
59859;BME280;45734;53.648;9.566;2024-02-23T21:25:17;53791.13;;;-145.06;100.00
59859;BME280;45734;53.648;9.566;2024-02-23T21:30:17;53772.91;;;-145.06;100.00
59859;BME280;45734;53.648;9.566;2024-02-23T21:35:18;53772.91;;;-145.06;100.00
59859;BME280;45734;53.648;9.566;2024-02-23T21:40:20;53770.88;;;-145.06;100.00
59859;BME280;45734;53.648;9.566;2024-02-23T21:45:21;53789.09;;;-145.06;100.00
59859;BME280;45734;53.648;9.566;2024-02-23T21:50:22;53789.09;;;-145.06;100.00
59859;BME280;45734;53.648;9.566;2024-02-23T21:55:22;53760.75;;;-145.06;100.00
59859;BME280;45734;53.648;9.566;2024-02-23T22:00:24;53762.78;;;-145.06;100.00
59859;BME280;45734;53.648;9.566;2024-02-23T22:05:24;53770.88;;;-145.06;100.00
59859;BME280;45734;53.648;9.566;2024-02-23T22:10:24;53774.94;;;-145.06;100.00
59859;BME280;45734;53.648;9.566;2024-02-23T22:15:25;53744.56;;;-145.06;100.00
59859;BME280;45734;53.648;9.566;2024-02-23T22:20:25;53762.78;;;-145.06;100.00
59859;BME280;45734;53.648;9.566;2024-02-23T22:25:25;53726.31;;;-145.06;100.00
59859;BME280;45734;53.648;9.566;2024-02-23T22:30:25;53750.63;;;-145.06;100.00
59859;BME280;45734;53.648;9.566;2024-02-23T22:35:26;53722.28;;;-145.06;100.00
59859;BME280;45734;53.648;9.566;2024-02-23T22:40:26;53736.44;;;-145.06;100.00
59859;BME280;45734;53.648;9.566;2024-02-23T22:45:27;53710.13;;;-145.06;100.00
59859;BME280;45734;53.648;9.566;2024-02-23T22:50:27;53762.78;;;-145.06;100.00
59859;BME280;45734;53.648;9.566;2024-02-23T22:55:27;53722.28;;;-145.06;100.00
59859;BME280;45734;53.648;9.566;2024-02-23T23:00:27;53734.44;;;-145.06;100.00
59859;BME280;45734;53.648;9.566;2024-02-23T23:05:28;53693.94;;;-145.06;100.00
59859;BME280;45734;53.648;9.566;2024-02-23T23:10:28;53708.09;;;-145.06;100.00
59859;BME280;45734;53.648;9.566;2024-02-23T23:15:28;53724.31;;;-145.06;100.00
59859;BME280;45734;53.648;9.566;2024-02-23T23:20:29;53702.03;;;-145.06;100.00
59859;BME280;45734;53.648;9.566;2024-02-23T23:25:29;53728.34;;;-145.06;100.00
59859;BME280;45734;53.648;9.566;2024-02-23T23:30:29;53710.13;;;-145.06;100.00
59859;BME280;45734;53.648;9.566;2024-02-23T23:35:29;53728.34;;;-145.06;100.00
59859;BME280;45734;53.648;9.566;2024-02-23T23:40:30;53726.31;;;-145.06;100.00
59859;BME280;45734;53.648;9.566;2024-02-23T23:45:30;53726.31;;;-145.06;100.00
59859;BME280;45734;53.648;9.566;2024-02-23T23:50:30;53766.81;;;-145.06;100.00
59859;BME280;45734;53.648;9.566;2024-02-23T23:55:31;53770.88;;;-145.06;100.00
